Nearby METAR Reports

Here are local weather reports from nearby weather stations and airports.

KHFD - Hartford/Brainar, Connecticut, USA
Distance from station: NE 5mi, 8km
Updated: Thu, 09/21/2017 2:53pm EDT
Clear
Clear
 Wind from NNE
Wind: NNE 14 mph , 22 km/h, Gust: 23 mph , 37 km/h
Temperature: 75°F , 24°C
Dew Point: 57°F , 14°C
Humidity: 54%
Barometer: 29.99 inHg , 1015.6 hPa
Clouds: Clear
Visibility: 10 miles , 16 km
2017/09/21 18:53 KHFD 211853Z 03012G20KT 10SM CLR 24/14 A2999 RMK AO2 SLP154 T02390139
KMMK - Meriden, Connecticut, USA
Distance from station: SSW 13mi, 21km
Updated: Thu, 09/21/2017 2:53pm EDT
Clear
Clear
 Wind from N
Wind: N 12 mph , 19 km/h, Gust: 17 mph , 28 km/h
Temperature: 75°F , 24°C
Dew Point: 59°F , 15°C
Humidity: 57%
Barometer: 29.99 inHg , 1015.6 hPa
Clouds: Clear
Visibility: 10 miles , 16 km
2017/09/21 18:53 KMMK 211853Z AUTO 01010G15KT 10SM CLR 24/15 A2999 RMK AO2 SLP153 T02390150
 
KBDL - Windsor Locks, Connecticut, USA
Distance from station: N 17mi, 28km
Updated: Thu, 09/21/2017 2:51pm EDT
Overcast
Overcast
 Wind from NE
Wind: NE 10 mph , 17 km/h
Temperature: 75°F , 24°C
Dew Point: 59°F , 15°C
Humidity: 57%
Barometer: 30.00 inHg , 1015.9 hPa
Clouds: Overcast
Visibility: 10 miles , 16 km
Cloud details: Few Clouds 3500 ft
Few Clouds 17000 ft
Partly cloudy 22000 ft
Overcast 25000 ft
2017/09/21 18:51 KBDL 211851Z 04009KT 10SM FEW035 FEW170 SCT220 OVC250 24/15 A3000 RMK AO2 SLP159 T02440150
KSNC - Chester, Connecticut, USA
Distance from station: SSE 24mi, 38km
Updated: Thu, 09/21/2017 2:55pm EDT
Clear
Clear
 Wind from N
Wind: N 9 mph , 15 km/h, Gust: 18 mph , 30 km/h
Temperature: 73°F , 23°C
Dew Point: 59°F , 15°C
Humidity: 61%
Barometer: 29.98 inHg , 1015.2 hPa
Clouds: Clear
Visibility: 10 miles , 16 km
2017/09/21 18:55 KSNC 211855Z AUTO 01008G16KT 330V040 10SM CLR 23/15 A2998 RMK AO2
 
KOXC - Oxford/Waterbury, Connecticut, USA
Distance from station: SW 26mi, 42km
Updated: Thu, 09/21/2017 2:51pm EDT
Partly cloudy
Partly cloudy
 Wind from N
Wind: N 14 mph , 22 km/h
Temperature: 73°F , 23°C
Dew Point: 63°F , 17°C
Humidity: 69%
Barometer: 30.02 inHg , 1016.6 hPa
Clouds: Partly cloudy
Visibility: 10 miles , 16 km
Cloud details: Partly cloudy 3100 ft
2017/09/21 18:51 KOXC 211851Z 01012KT 10SM SCT031 23/17 A3002 RMK AO2 SLP174 T02280167
KIJD - Willimantic, Connecticut, USA
Distance from station: E 28mi, 45km
Updated: Thu, 09/21/2017 2:52pm EDT
Clear
Clear
 Wind from NNE
Wind: NNE 10 mph , 17 km/h
Temperature: 73°F , 23°C
Dew Point: 57°F , 14°C
Humidity: 57%
Barometer: 30.00 inHg , 1015.9 hPa
Clouds: Clear
Visibility: 10 miles , 16 km
2017/09/21 18:52 KIJD 211852Z AUTO 03009KT 10SM CLR 23/14 A3000 RMK AO2 SLP155 T02280139
 
KHVN - New Haven/Tweed, Connecticut, USA
Distance from station: SSW 30mi, 48km
Updated: Thu, 09/21/2017 2:53pm EDT
Overcast
Overcast
 Wind from NNE
Wind: NNE 15 mph , 24 km/h, Gust: 21 mph , 33 km/h
Temperature: 75°F , 24°C
Dew Point: 61°F , 16°C
Humidity: 61%
Barometer: 29.98 inHg , 1015.2 hPa
Clouds: Overcast
Visibility: 10 miles , 16 km
Cloud details: Few Clouds 3000 ft
Overcast 15000 ft
2017/09/21 18:53 KHVN 211853Z 02013G18KT 10SM FEW030 OVC150 24/16 A2998 RMK AO2 SLP150 T02440156
KBAF - Westfield, Massachusetts, USA
Distance from station: 0 33mi, 54km
Updated: Thu, 09/21/2017 2:53pm EDT
Few Clouds
Few Clouds
 Wind from NNE
Wind: NNE 10 mph , 17 km/h
Temperature: 79°F , 26°C
Dew Point: 63°F , 17°C
Humidity: 58%
Barometer: 30.01 inHg , 1016.3 hPa
Clouds: Few Clouds
Visibility: 10 miles , 16 km
Cloud details: Few Clouds 4100 ft
2017/09/21 18:53 KBAF 211853Z 02009KT 10SM FEW041 26/17 A3001 RMK AO2 SLP160 T02560167
 
KCEF - Chicopee/Westove, Massachusetts, USA
Distance from station: NNE 37mi, 60km
Updated: Thu, 09/21/2017 2:58pm EDT
Mostly cloudy
Mostly cloudy
 Wind from E
Wind: E 8 mph , 13 km/h
Temperature: 77°F , 25°C
Dew Point: 55°F , 13°C
Humidity: 47%
Barometer: 30.00 inHg , 1015.9 hPa
Clouds: Mostly cloudy
Visibility: 10 miles , 16 km
Cloud details: Few Clouds 3000 ft
Partly cloudy 16000 ft
Mostly cloudy 20000 ft
2017/09/21 18:58 KCEF 211858Z 08007KT 10SM FEW030 SCT160 BKN200 25/13 A3000 RMK AO2A SLP164 T02510132
KBDR - Bridgeport, Connecticut, USA
Distance from station: SSW 42mi, 67km
Updated: Thu, 09/21/2017 2:52pm EDT
Clear
Clear
 Wind from NNE
Wind: NNE 12 mph , 19 km/h
Temperature: 77°F , 25°C
Dew Point: 61°F , 16°C
Humidity: 57%
Barometer: 29.98 inHg , 1015.2 hPa
Clouds: Clear
Visibility: 10 miles , 16 km
2017/09/21 18:52 KBDR 211852Z 02010KT 10SM CLR 25/16 A2998 RMK AO2 SLP152 T02500161
 
KGON - Groton/New Londo, Connecticut, USA
Distance from station: SE 42mi, 68km
Updated: Thu, 09/21/2017 2:56pm EDT
Clear
Clear
 Wind from N
Wind: N 17 mph , 28 km/h, Gust: 25 mph , 41 km/h
Temperature: 72°F , 22°C
Dew Point: 57°F , 14°C
Humidity: 61%
Barometer: 29.93 inHg , 1013.5 hPa
Clouds: Clear
Visibility: 10 miles , 16 km
2017/09/21 18:56 KGON 211856Z 01015G22KT 10SM CLR 22/14 A2993 RMK AO2 PK WND 36029/1758 SLP134 T02170139
KDXR - Danbury, Connecticut, USA
Distance from station: WSW 45mi, 73km
Updated: Thu, 09/21/2017 2:53pm EDT
Clear
Clear
 Wind from NNE
Wind: NNE 9 mph , 15 km/h
Temperature: 79°F , 26°C
Dew Point: 63°F , 17°C
Humidity: 58%
Barometer: 30.02 inHg , 1016.6 hPa
Clouds: Clear
Visibility: 10 miles , 16 km
2017/09/21 18:53 KDXR 211853Z 02008KT 10SM CLR 26/17 A3002 RMK AO2 SLP161 T02560167